Time;durP1;ratioP1;P1;durP2;ratioP2;P2;SDS_P1;SDS_P2;PMS_P1;PMS_P2;Temp;Humidity;BMP_temperature;BMP_pressure;BME280_temperature;BME280_humidity;BME280_pressure;Samples;Min_cycle;Max_cycle;Signal;HPM_P1;HPM_P2
2022/10/06 00:01:55;;;;;;;;;;;;;;;21.77;65.84;99917.56;7312178;19;129770;-40
2022/10/06 00:04:20;;;;;;;;;;;;;;;21.79;65.59;99919.13;7315068;19;129261;-40
2022/10/06 00:06:45;;;;;;;;;;;;;;;21.80;65.78;99920.75;7313454;19;130026;-41
2022/10/06 00:09:11;;;;;;;;;;;;;;;21.78;66.03;99922.69;7315110;19;129210;-38
2022/10/06 00:11:36;;;;;;;;;;;;;;;21.79;65.64;99916.50;7313681;19;129018;-40
2022/10/06 00:14:02;;;;;;;;;;;;;;;21.84;65.82;99913.47;7312245;19;130212;-40
2022/10/06 00:16:27;;;;;;;;;;;;;;;21.82;65.52;99916.22;7314989;19;130387;-37
2022/10/06 00:18:52;;;;;;;;;;;;;;;21.83;65.64;99920.50;7314526;19;129135;-38
2022/10/06 00:21:17;;;;;;;;;;;;;;;21.79;65.75;99923.50;7314770;19;128933;-38
2022/10/06 00:23:43;;;;;;;;;;;;;;;21.83;65.67;99923.09;7312844;19;130636;-41
2022/10/06 00:26:15;;;;;;;;;;;;;;;21.83;65.55;99917.06;7314777;19;130106;-41
2022/10/06 00:28:40;;;;;;;;;;;;;;;21.80;65.61;99918.16;7313116;19;130275;-38
2022/10/06 00:31:05;;;;;;;;;;;;;;;21.80;65.13;99915.53;7313007;19;129053;-39
2022/10/06 00:33:31;;;;;;;;;;;;;;;21.71;65.46;99908.47;7311113;19;128869;-40
2022/10/06 00:35:57;;;;;;;;;;;;;;;21.78;65.46;99920.06;7310963;19;130777;-40
2022/10/06 00:38:22;;;;;;;;;;;;;;;21.73;65.99;99916.97;7313411;19;129828;-41
2022/10/06 00:40:48;;;;;;;;;;;;;;;21.81;65.66;99930.28;7313240;19;129147;-38
2022/10/06 00:43:32;;;;;;;;;;;;;;;21.81;65.25;99929.44;7313371;19;129795;-41
2022/10/06 00:45:57;;;;;;;;;;;;;;;21.72;65.29;99904.88;7312505;19;129176;-41
2022/10/06 00:48:25;;;;;;;;;;;;;;;21.80;65.71;99920.75;7313878;19;129789;-40
2022/10/06 00:50:52;;;;;;;;;;;;;;;21.84;65.76;99924.78;7312525;19;128888;-38
2022/10/06 00:53:18;;;;;;;;;;;;;;;21.76;65.54;99908.91;7310574;19;129444;-41
2022/10/06 00:55:43;;;;;;;;;;;;;;;21.83;65.02;99928.34;7313469;19;129300;-40
2022/10/06 00:58:08;;;;;;;;;;;;;;;21.79;65.84;99926.13;7311053;19;129726;-38
2022/10/06 01:00:34;;;;;;;;;;;;;;;21.76;65.39;99916.78;7313644;19;131714;-38
2022/10/06 01:03:04;;;;;;;;;;;;;;;21.84;65.38;99923.94;7311839;19;130185;-40
2022/10/06 01:05:32;;;;;;;;;;;;;;;21.74;65.68;99908.19;7311222;19;129697;-41
2022/10/06 01:07:58;;;;;;;;;;;;;;;21.81;65.58;99919.81;7303845;19;129553;-40
2022/10/06 01:10:23;;;;;;;;;;;;;;;21.80;65.60;99915.53;7312497;19;128929;-38
2022/10/06 01:12:48;;;;;;;;;;;;;;;21.82;65.00;99916.22;7313095;19;130753;-42
2022/10/06 01:15:14;;;;;;;;;;;;;;;21.74;65.57;99910.81;7310791;19;129981;-40
2022/10/06 01:17:53;;;;;;;;;;;;;;;21.83;65.33;99923.09;7309017;19;130098;-40
2022/10/06 01:20:19;;;;;;;;;;;;;;;21.76;65.78;99908.91;7313634;19;129466;-41
2022/10/06 01:23:04;;;;;;;;;;;;;;;21.84;65.16;99934.41;7313854;19;129609;-38
2022/10/06 01:25:30;;;;;;;;;;;;;;;21.83;65.27;99930.97;7310623;19;129611;-39
2022/10/06 01:27:56;;;;;;;;;;;;;;;21.82;65.27;99931.94;7307641;19;129611;-40
2022/10/06 01:30:26;;;;;;;;;;;;;;;21.82;65.78;99937.16;7312704;19;128813;-38
2022/10/06 01:32:52;;;;;;;;;;;;;;;21.82;65.28;99925.84;7311350;19;128955;-40
2022/10/06 01:35:17;;;;;;;;;;;;;;;21.80;65.56;99933.84;7310821;19;129189;-41
2022/10/06 01:37:42;;;;;;;;;;;;;;;21.84;65.82;99931.78;7309367;19;129150;-40
2022/10/06 01:40:08;;;;;;;;;;;;;;;21.80;65.09;99933.84;7311918;19;129242;-38
2022/10/06 01:42:34;;;;;;;;;;;;;;;21.78;65.46;99940.19;7310045;19;131625;-41
2022/10/06 01:45:00;;;;;;;;;;;;;;;21.80;65.28;99944.31;7309525;19;129061;-38
2022/10/06 01:47:25;;;;;;;;;;;;;;;21.84;65.78;99935.25;7309833;19;130940;-41
2022/10/06 01:49:50;;;;;;;;;;;;;;;21.86;65.63;99932.50;7312812;19;131186;-40
2022/10/06 01:52:15;;;;;;;;;;;;;;;21.84;64.93;99947.50;7312506;19;129005;-38
2022/10/06 01:54:41;;;;;;;;;;;;;;;21.85;65.37;99942.13;7309392;19;131058;-41
2022/10/06 01:57:07;;;;;;;;;;;;;;;21.83;65.84;99949.28;7312236;19;129686;-39
2022/10/06 01:59:32;;;;;;;;;;;;;;;21.83;65.18;99954.50;7311694;19;129109;-39
2022/10/06 02:01:58;;;;;;;;;;;;;;;21.85;65.60;99957.84;7310815;19;129285;-40
2022/10/06 02:04:23;;;;;;;;;;;;;;;21.83;65.96;99962.38;7310066;19;130072;-41
2022/10/06 02:06:50;;;;;;;;;;;;;;;21.80;65.34;99954.78;7306892;19;129643;-40
2022/10/06 02:09:15;;;;;;;;;;;;;;;21.86;65.35;99959.50;7310196;19;128943;-40
2022/10/06 02:11:40;;;;;;;;;;;;;;;21.84;65.38;99965.81;7311123;19;129029;-38
2022/10/06 02:14:06;;;;;;;;;;;;;;;21.85;65.41;99967.47;7309937;19;129104;-41
2022/10/06 02:16:31;;;;;;;;;;;;;;;21.77;65.55;99955.06;7311002;19;129583;-40
2022/10/06 02:18:56;;;;;;;;;;;;;;;21.78;65.48;99964.56;7310400;19;129882;-39
2022/10/06 02:21:21;;;;;;;;;;;;;;;21.83;65.09;99975.47;7310704;19;129674;-41
2022/10/06 02:23:47;;;;;;;;;;;;;;;21.73;65.61;99964.09;7310150;19;129396;-40
2022/10/06 02:26:14;;;;;;;;;;;;;;;21.81;65.64;99982.63;7311062;19;129709;-37
2022/10/06 02:28:40;;;;;;;;;;;;;;;21.85;65.34;99978.78;7310615;19;130544;-39
2022/10/06 02:31:07;;;;;;;;;;;;;;;21.78;65.43;99980.25;7311458;19;129492;-40
2022/10/06 02:33:32;;;;;;;;;;;;;;;21.85;65.55;99983.16;7306412;19;130356;-41
2022/10/06 02:35:58;;;;;;;;;;;;;;;21.83;65.56;99993.78;7311241;19;129363;-41
2022/10/06 02:38:24;;;;;;;;;;;;;;;21.84;65.23;99992.84;7310258;19;128877;-41
2022/10/06 02:40:50;;;;;;;;;;;;;;;21.84;65.25;99992.84;7311181;19;128918;-39
2022/10/06 02:43:15;;;;;;;;;;;;;;;21.84;65.51;99992.84;7307733;19;131055;-38
2022/10/06 02:45:42;;;;;;;;;;;;;;;21.75;65.74;99983.09;7308126;19;129903;-39
2022/10/06 02:48:10;;;;;;;;;;;;;;;21.88;65.53;99988.97;7308557;19;129554;-41
2022/10/06 02:50:36;;;;;;;;;;;;;;;21.85;65.00;99991.88;7312451;19;129019;-41
2022/10/06 02:53:01;;;;;;;;;;;;;;;21.83;65.19;99987.72;7309530;19;130644;-41
2022/10/06 02:55:26;;;;;;;;;;;;;;;21.83;65.51;99987.72;7305877;19;130323;-40
2022/10/06 02:57:52;;;;;;;;;;;;;;;21.85;65.31;99973.53;7316192;19;130062;-38
2022/10/06 03:00:18;;;;;;;;;;;;;;;21.85;65.64;99973.53;7318043;19;129132;-38
2022/10/06 03:02:44;;;;;;;;;;;;;;;21.80;65.99;99974.88;7316669;19;129748;-41
2022/10/06 03:05:09;;;;;;;;;;;;;;;21.81;65.38;99972.16;7316208;19;129561;-38
2022/10/06 03:07:34;;;;;;;;;;;;;;;21.87;65.08;99986.50;7312665;19;129168;-40
2022/10/06 03:09:59;;;;;;;;;;;;;;;21.72;65.47;99999.06;7316489;19;128854;-42
2022/10/06 03:12:25;;;;;;;;;;;;;;;21.80;65.61;100016.75;7316951;19;129036;-40
2022/10/06 03:14:50;;;;;;;;;;;;;;;21.74;65.88;100010.25;7313956;19;130429;-39
2022/10/06 03:17:16;;;;;;;;;;;;;;;21.83;65.57;100022.56;7314069;19;130103;-41
2022/10/06 03:19:41;;;;;;;;;;;;;;;21.85;65.38;100014.59;7316759;19;129409;-41
2022/10/06 03:22:06;;;;;;;;;;;;;;;21.83;65.51;100017.34;7316131;19;128971;-38
2022/10/06 03:24:31;;;;;;;;;;;;;;;21.84;65.75;100024.25;7316169;19;130431;-39
2022/10/06 03:26:57;;;;;;;;;;;;;;;21.88;65.32;100019.59;7315010;19;130729;-38
2022/10/06 03:29:22;;;;;;;;;;;;;;;21.82;65.23;100018.31;7315049;19;130756;-41
2022/10/06 03:31:48;;;;;;;;;;;;;;;21.78;65.74;100013.47;7316795;19;129551;-41
2022/10/06 03:34:14;;;;;;;;;;;;;;;21.84;65.82;100029.47;7315634;19;130303;-40
2022/10/06 03:36:39;;;;;;;;;;;;;;;21.84;65.70;100039.13;7314930;19;129571;-36
2022/10/06 03:39:05;;;;;;;;;;;;;;;21.79;64.97;100026.44;7314764;19;129820;-38
2022/10/06 03:41:31;;;;;;;;;;;;;;;21.89;65.42;100043.00;7311787;19;129238;-38
2022/10/06 03:43:57;;;;;;;;;;;;;;;21.85;65.31;100044.22;7315626;19;130331;-38
2022/10/06 03:46:24;;;;;;;;;;;;;;;21.84;65.43;100044.34;7316332;19;129610;-42
2022/10/06 03:48:51;;;;;;;;;;;;;;;21.87;65.50;100059.78;7315642;19;129235;-39
2022/10/06 03:51:21;;;;;;;;;;;;;;;21.87;65.07;100054.56;7315732;19;130159;-41
2022/10/06 03:53:47;;;;;;;;;;;;;;;21.83;65.79;100059.22;7313606;19;129180;-41
2022/10/06 03:56:27;;;;;;;;;;;;;;;21.89;65.44;100063.94;7315083;19;130065;-41
2022/10/06 03:58:59;;;;;;;;;;;;;;;21.87;65.82;100065.88;7314936;19;129419;-38
2022/10/06 04:01:32;;;;;;;;;;;;;;;21.85;65.64;100067.78;7316103;19;131036;-41
2022/10/06 04:03:57;;;;;;;;;;;;;;;21.84;65.54;100073.13;7313360;19;129370;-40
2022/10/06 04:06:23;;;;;;;;;;;;;;;21.85;65.68;100077.41;7311951;19;129596;-40
2022/10/06 04:08:49;;;;;;;;;;;;;;;21.84;65.71;100079.22;7310151;19;129631;-41
2022/10/06 04:11:16;;;;;;;;;;;;;;;21.87;65.78;100080.72;7313758;19;131157;-38
2022/10/06 04:13:42;;;;;;;;;;;;;;;21.87;65.33;100075.50;7314311;19;130265;-40
2022/10/06 04:16:18;;;;;;;;;;;;;;;21.84;65.25;100076.59;7312493;19;130437;-38
2022/10/06 04:18:44;;;;;;;;;;;;;;;21.83;65.88;100074.91;7314885;19;129080;-41
2022/10/06 04:21:09;;;;;;;;;;;;;;;21.84;65.77;100081.84;7315768;19;129674;-38
2022/10/06 04:23:37;;;;;;;;;;;;;;;21.87;65.68;100091.19;7313769;19;129208;-41
2022/10/06 04:26:10;;;;;;;;;;;;;;;21.83;65.61;100101.09;7314709;19;129654;-41
2022/10/06 04:28:37;;;;;;;;;;;;;;;21.84;65.83;100089.69;7309395;19;130331;-41
2022/10/06 04:31:03;;;;;;;;;;;;;;;21.74;65.28;100075.69;7314497;19;131028;-39
2022/10/06 04:33:30;;;;;;;;;;;;;;;21.81;65.47;100082.09;7312776;19;129514;-39
2022/10/06 04:35:59;;;;;;;;;;;;;;;21.81;65.94;100087.34;7313899;19;129007;-41
2022/10/06 04:38:26;;;;;;;;;;;;;;;21.85;65.07;100090.50;7312987;19;129448;-40
2022/10/06 04:40:51;;;;;;;;;;;;;;;21.83;66.07;100088.00;7309878;19;130682;-40
2022/10/06 04:43:16;;;;;;;;;;;;;;;21.82;65.64;100091.59;7312673;19;129598;-41
2022/10/06 04:45:42;;;;;;;;;;;;;;;21.83;65.71;100095.84;7309244;19;129215;-41
2022/10/06 04:48:07;;;;;;;;;;;;;;;21.83;65.04;100111.56;7311893;19;128970;-38
2022/10/06 04:50:32;;;;;;;;;;;;;;;21.86;65.47;100103.47;7313328;19;129089;-40
2022/10/06 04:52:58;;;;;;;;;;;;;;;21.89;65.12;100108.44;7311965;19;129933;-39
2022/10/06 04:55:23;;;;;;;;;;;;;;;21.86;65.05;100108.72;7311673;19;129136;-37
2022/10/06 04:57:48;;;;;;;;;;;;;;;21.82;65.92;100109.91;7308844;19;128825;-40
2022/10/06 05:00:23;;;;;;;;;;;;;;;21.87;65.66;100115.59;7312087;19;129486;-38
2022/10/06 05:02:48;;;;;;;;;;;;;;;21.80;64.95;100114.44;7308766;19;129400;-40
2022/10/06 05:05:13;;;;;;;;;;;;;;;21.86;64.81;100121.81;7307786;19;130535;-41
2022/10/06 05:07:39;;;;;;;;;;;;;;;21.89;65.62;100126.78;7306132;19;129281;-36
2022/10/06 05:10:04;;;;;;;;;;;;;;;21.86;65.29;100134.06;7311024;19;130381;-41
2022/10/06 05:12:30;;;;;;;;;;;;;;;21.81;65.67;100126.59;7310500;19;130576;-40
2022/10/06 05:14:55;;;;;;;;;;;;;;;21.90;65.32;100148.53;7311309;19;128953;-41
2022/10/06 05:17:20;;;;;;;;;;;;;;;21.89;65.46;100146.88;7311132;19;129263;-40
2022/10/06 05:19:45;;;;;;;;;;;;;;;21.84;64.95;100156.91;7310602;19;131798;-38
2022/10/06 05:22:11;;;;;;;;;;;;;;;21.87;65.29;100164.50;7313622;19;130337;-41
2022/10/06 05:24:36;;;;;;;;;;;;;;;21.86;65.35;100163.69;7312710;19;129121;-40
2022/10/06 05:27:02;;;;;;;;;;;;;;;21.86;65.07;100161.06;7307433;19;129603;-40
2022/10/06 05:29:28;;;;;;;;;;;;;;;21.88;65.19;100177.44;7312854;19;130090;-41
2022/10/06 05:31:54;;;;;;;;;;;;;;;21.87;65.60;100175.81;7309771;19;130254;-40
2022/10/06 05:34:20;;;;;;;;;;;;;;;21.87;65.33;100183.66;7311192;19;129909;-41
2022/10/06 05:36:46;;;;;;;;;;;;;;;21.83;65.31;100179.63;7312850;19;129024;-40
2022/10/06 05:39:11;;;;;;;;;;;;;;;21.86;65.51;100189.88;7307832;19;130315;-41
2022/10/06 05:41:37;;;;;;;;;;;;;;;21.85;65.81;100188.19;7312134;19;129191;-39
2022/10/06 05:44:02;;;;;;;;;;;;;;;21.80;65.47;100179.03;7310841;19;129528;-41
2022/10/06 05:46:28;;;;;;;;;;;;;;;21.86;65.37;100196.88;7311177;19;129425;-40
2022/10/06 05:48:55;;;;;;;;;;;;;;;21.87;65.22;100196.75;7303762;19;129590;-41
2022/10/06 05:51:21;;;;;;;;;;;;;;;21.84;65.17;100202.25;7311895;19;130143;-41
2022/10/06 05:53:47;;;;;;;;;;;;;;;21.84;65.44;100204.84;7310407;19;129328;-41
2022/10/06 05:56:12;;;;;;;;;;;;;;;21.87;65.55;100217.69;7311979;19;129669;-41
2022/10/06 05:58:39;;;;;;;;;;;;;;;21.86;66.07;100216.03;7310598;19;129520;-40
2022/10/06 06:01:10;;;;;;;;;;;;;;;21.87;65.80;100224.69;7307955;19;129764;-41
2022/10/06 06:03:35;;;;;;;;;;;;;;;21.84;65.32;100233.66;7310976;19;130778;-40
2022/10/06 06:06:01;;;;;;;;;;;;;;;21.87;65.67;100233.41;7311414;19;129975;-40
2022/10/06 06:08:27;;;;;;;;;;;;;;;21.92;65.66;100239.09;7307630;19;129167;-38
2022/10/06 06:10:52;;;;;;;;;;;;;;;21.89;65.76;100231.50;7310658;19;130456;-37
2022/10/06 06:13:21;;;;;;;;;;;;;;;21.84;65.62;100244.13;7307766;19;131404;-37
2022/10/06 06:16:02;;;;;;;;;;;;;;;21.87;65.69;100285.75;7309200;19;129447;-38
2022/10/06 06:18:28;;;;;;;;;;;;;;;21.88;65.78;100307.53;7311770;19;129049;-37
2022/10/06 06:20:54;;;;;;;;;;;;;;;21.81;65.81;100320.28;7311857;19;131050;-37
2022/10/06 06:23:19;;;;;;;;;;;;;;;21.95;65.29;100314.75;7311271;19;130725;-38
2022/10/06 06:25:54;;;;;;;;;;;;;;;21.90;65.33;100311.69;7310161;19;129851;-37
2022/10/06 06:28:19;;;;;;;;;;;;;;;21.83;65.57;100318.34;7307319;19;130996;-37
2022/10/06 06:30:46;;;;;;;;;;;;;;;21.91;65.51;100339.50;7310713;19;129572;-38
2022/10/06 06:33:12;;;;;;;;;;;;;;;21.91;65.83;100357.81;7317329;19;129332;-37
2022/10/06 06:35:37;;;;;;;;;;;;;;;21.92;65.05;100362.13;7315269;19;129377;-37
2022/10/06 06:38:02;;;;;;;;;;;;;;;21.95;65.25;100381.97;7314215;19;129483;-38
2022/10/06 06:40:27;;;;;;;;;;;;;;;21.93;65.07;100402.25;7317212;19;129167;-38
2022/10/06 06:42:53;;;;;;;;;;;;;;;21.89;65.59;100409.50;7314934;19;129735;-38
2022/10/06 06:45:20;;;;;;;;;;;;;;;21.88;65.42;100418.28;7317081;19;129250;-38
2022/10/06 06:47:46;;;;;;;;;;;;;;;21.90;65.92;100432.09;7314830;19;130910;-37
2022/10/06 06:50:12;;;;;;;;;;;;;;;21.93;65.51;100437.09;7313710;19;130887;-38
2022/10/06 06:52:38;;;;;;;;;;;;;;;21.89;65.63;100435.69;7315998;19;129825;-38
2022/10/06 06:55:03;;;;;;;;;;;;;;;21.90;65.23;100445.19;7315746;19;129307;-38
2022/10/06 06:57:28;;;;;;;;;;;;;;;21.82;65.09;100439.72;7317129;19;130382;-37
2022/10/06 06:59:55;;;;;;;;;;;;;;;21.88;65.69;100454.94;7316831;19;130439;-38
2022/10/06 07:02:23;;;;;;;;;;;;;;;21.90;65.85;100449.59;7314366;19;129622;-38
2022/10/06 07:04:48;;;;;;;;;;;;;;;21.90;65.74;100463.50;7315302;19;129274;-39
2022/10/06 07:07:14;;;;;;;;;;;;;;;21.94;65.14;100483.28;7316315;19;130116;-35
2022/10/06 07:09:39;;;;;;;;;;;;;;;21.92;65.73;100492.19;7316336;19;130337;-38
2022/10/06 07:12:04;;;;;;;;;;;;;;;21.81;65.99;100490.44;7315858;19;129928;-38
2022/10/06 07:14:29;;;;;;;;;;;;;;;21.87;65.94;100504.81;7314789;19;129515;-38
2022/10/06 07:25:05;;;;;;;;;;;;;;;21.89;65.60;100514.22;7315336;19;129627;-38
2022/10/06 07:27:41;;;;;;;;;;;;;;;21.90;65.26;100518.50;7314700;19;130197;-38
2022/10/06 07:30:08;;;;;;;;;;;;;;;21.91;65.76;100517.53;7310098;19;131308;-38
2022/10/06 07:32:34;;;;;;;;;;;;;;;21.90;65.60;100521.13;7313454;19;130583;-38
2022/10/06 07:35:00;;;;;;;;;;;;;;;21.94;65.58;100527.78;7313756;19;129194;-38
2022/10/06 07:37:26;;;;;;;;;;;;;;;21.84;65.27;100511.13;7314338;19;130228;-37
2022/10/06 07:39:51;;;;;;;;;;;;;;;21.90;65.42;100531.59;7314704;19;129500;-38
2022/10/06 07:42:16;;;;;;;;;;;;;;;21.92;65.46;100534.09;7313884;19;129206;-38
2022/10/06 07:44:42;;;;;;;;;;;;;;;21.91;65.25;100537.66;7314956;19;129232;-38
2022/10/06 07:47:08;;;;;;;;;;;;;;;21.87;65.50;100560.63;7315621;19;129383;-38
2022/10/06 07:49:33;;;;;;;;;;;;;;;21.89;65.71;100570.97;7314183;19;129987;-38
2022/10/06 07:51:59;;;;;;;;;;;;;;;21.88;65.51;100564.91;7315492;19;129318;-38
2022/10/06 07:54:24;;;;;;;;;;;;;;;21.91;65.57;100563.84;7314186;19;128997;-38
2022/10/06 07:56:50;;;;;;;;;;;;;;;21.93;65.02;100573.22;7309468;19;130145;-38
2022/10/06 07:59:15;;;;;;;;;;;;;;;21.94;65.02;100569.69;7314251;19;129087;-38
2022/10/06 08:01:42;;;;;;;;;;;;;;;21.90;65.62;100576.09;7314452;19;129116;-37
2022/10/06 08:04:08;;;;;;;;;;;;;;;21.91;65.53;100585.59;7313643;19;129295;-37
2022/10/06 08:06:33;;;;;;;;;;;;;;;21.91;65.22;100590.03;7314786;19;129517;-37
2022/10/06 08:08:58;;;;;;;;;;;;;;;21.90;65.15;100589.19;7311022;19;129193;-37
2022/10/06 08:11:24;;;;;;;;;;;;;;;21.93;65.49;100598.59;7309832;19;130081;-37
2022/10/06 08:13:50;;;;;;;;;;;;;;;21.91;65.43;100598.69;7311199;19;129207;-37
2022/10/06 08:16:17;;;;;;;;;;;;;;;21.92;65.43;100600.38;7313330;19;131032;-37
2022/10/06 08:18:46;;;;;;;;;;;;;;;21.88;65.62;100596.31;7310266;19;129965;-37
2022/10/06 08:21:13;;;;;;;;;;;;;;;21.91;65.61;100595.25;7312372;19;130878;-37
2022/10/06 08:23:41;;;;;;;;;;;;;;;21.94;65.11;100595.88;7313063;19;128960;-37
2022/10/06 08:26:06;;;;;;;;;;;;;;;21.93;65.07;100602.03;7313889;19;130219;-38
2022/10/06 08:28:31;;;;;;;;;;;;;;;21.93;65.67;100612.50;7312001;19;129212;-36
2022/10/06 08:30:57;;;;;;;;;;;;;;;21.95;65.54;100610.63;7310548;19;130556;-37
2022/10/06 08:33:22;;;;;;;;;;;;;;;21.93;65.46;100614.31;7313895;19;129630;-37
2022/10/06 08:35:47;;;;;;;;;;;;;;;21.81;65.21;100603.00;7313233;19;129138;-37
2022/10/06 08:38:13;;;;;;;;;;;;;;;21.87;65.64;100620.84;7312881;19;129770;-37
2022/10/06 08:40:40;;;;;;;;;;;;;;;21.88;65.95;100627.72;7313883;19;129107;-38
2022/10/06 08:43:12;;;;;;;;;;;;;;;21.86;65.82;100627.03;7307932;19;128929;-37
2022/10/06 08:45:41;;;;;;;;;;;;;;;21.89;65.76;100634.66;7311436;19;130785;-37
2022/10/06 08:48:15;;;;;;;;;;;;;;;21.89;65.47;100629.41;7311240;19;131822;-37
2022/10/06 08:50:46;;;;;;;;;;;;;;;21.91;65.85;100642.38;7313078;19;129089;-37
2022/10/06 08:53:31;;;;;;;;;;;;;;;21.84;65.87;100625.47;7312353;19;129025;-38
2022/10/06 08:56:04;;;;;;;;;;;;;;;21.93;65.40;100645.72;7312289;19;131691;-38
2022/10/06 08:58:37;;;;;;;;;;;;;;;21.88;66.07;100655.72;7312235;19;131416;-38
2022/10/06 09:01:11;;;;;;;;;;;;;;;21.89;65.28;100655.59;7312875;19;129035;-37
2022/10/06 09:03:36;;;;;;;;;;;;;;;21.86;66.09;100650.59;7313807;19;129185;-38
2022/10/06 09:06:12;;;;;;;;;;;;;;;21.77;65.30;100650.44;7311103;19;129717;-37
2022/10/06 09:08:54;;;;;;;;;;;;;;;21.87;65.78;100652.25;7310902;19;129735;-37
2022/10/06 09:11:19;;;;;;;;;;;;;;;21.87;65.47;100657.50;7312741;19;130124;-38
2022/10/06 09:13:52;;;;;;;;;;;;;;;21.89;65.52;100655.59;7312427;19;129192;-38
2022/10/06 09:16:20;;;;;;;;;;;;;;;21.92;65.07;100655.38;7312847;19;130094;-37
2022/10/06 09:18:54;;;;;;;;;;;;;;;21.89;65.16;100660.00;7310219;19;130438;-38
2022/10/06 09:21:25;;;;;;;;;;;;;;;21.83;65.29;100652.59;7312126;19;129087;-38
2022/10/06 09:23:55;;;;;;;;;;;;;;;21.87;65.58;100662.72;7311356;19;129494;-38
2022/10/06 09:26:28;;;;;;;;;;;;;;;21.87;65.69;100665.34;7313462;19;129360;-38
2022/10/06 09:28:54;;;;;;;;;;;;;;;21.87;65.29;100667.97;7311047;19;130946;-37
2022/10/06 09:31:20;;;;;;;;;;;;;;;21.86;65.94;100676.78;7311709;19;130015;-38
2022/10/06 09:33:45;;;;;;;;;;;;;;;21.89;65.62;100671.31;7311928;19;128983;-38
2022/10/06 09:36:11;;;;;;;;;;;;;;;21.87;65.08;100678.44;7314995;19;130274;-37
2022/10/06 09:39:05;;;;;;;;;;;;;;;21.89;65.33;100673.94;7312476;19;130259;-36
2022/10/06 09:41:37;;;;;;;;;;;;;;;21.86;65.99;100676.78;7307444;19;129513;-37
2022/10/06 09:44:19;;;;;;;;;;;;;;;21.87;65.40;100669.75;7311001;19;128945;-37
2022/10/06 09:46:45;;;;;;;;;;;;;;;21.89;65.54;100680.94;7312966;19;129707;-37
2022/10/06 09:49:10;;;;;;;;;;;;;;;21.82;65.33;100675.31;7309076;19;129466;-37
2022/10/06 09:51:36;;;;;;;;;;;;;;;21.89;65.82;100697.50;7313322;19;129494;-37
2022/10/06 09:54:14;;;;;;;;;;;;;;;21.89;65.25;100687.00;7306552;19;129494;-38
2022/10/06 09:56:43;;;;;;;;;;;;;;;21.91;65.76;100689.53;7312186;19;129982;-37
2022/10/06 09:59:39;;;;;;;;;;;;;;;21.87;65.49;100688.06;7311395;19;131057;-37
2022/10/06 10:02:19;;;;;;;;;;;;;;;21.90;65.18;100700.91;7311135;19;131613;-37
2022/10/06 10:04:44;;;;;;;;;;;;;;;21.85;65.64;100703.88;7311607;19;129395;-37
2022/10/06 10:07:14;;;;;;;;;;;;;;;21.77;65.92;100690.53;7315338;19;129057;-37
2022/10/06 10:09:40;;;;;;;;;;;;;;;21.86;65.64;100695.09;7317417;19;130246;-38
2022/10/06 10:12:32;;;;;;;;;;;;;;;21.89;65.69;100697.50;7315099;19;129751;-37
2022/10/06 10:15:00;;;;;;;;;;;;;;;21.90;65.35;100700.91;7315698;19;129322;-37
2022/10/06 10:17:28;;;;;;;;;;;;;;;21.90;65.76;100698.31;7316700;19;130985;-38
2022/10/06 10:19:53;;;;;;;;;;;;;;;21.82;65.61;100685.78;7317774;19;129375;-37
2022/10/06 10:22:21;;;;;;;;;;;;;;;21.92;65.47;100710.34;7318368;19;129748;-37
2022/10/06 10:24:53;;;;;;;;;;;;;;;21.88;65.80;100700.22;7315969;19;129463;-38
2022/10/06 10:27:26;;;;;;;;;;;;;;;21.92;65.63;100707.72;7316514;19;130833;-37
2022/10/06 10:29:59;;;;;;;;;;;;;;;21.87;65.16;100714.25;7318513;19;129317;-41
2022/10/06 10:32:48;;;;;;;;;;;;;;;21.89;65.92;100713.19;7317982;19;128885;-37
2022/10/06 10:35:20;;;;;;;;;;;;;;;21.88;65.33;100721.16;7316836;19;129039;-37
2022/10/06 10:37:50;;;;;;;;;;;;;;;21.85;65.49;100716.97;7317016;19;130492;-38
2022/10/06 10:40:30;;;;;;;;;;;;;;;21.88;65.89;100715.94;7314824;19;130380;-37
2022/10/06 10:43:21;;;;;;;;;;;;;;;21.89;65.65;100720.22;7317667;19;129323;-37
2022/10/06 10:45:49;;;;;;;;;;;;;;;21.89;65.11;100715.81;7316090;19;129571;-37
2022/10/06 10:48:18;;;;;;;;;;;;;;;21.88;65.81;100714.13;7316330;19;130197;-38
2022/10/06 10:50:43;;;;;;;;;;;;;;;21.88;65.92;100721.97;7317956;19;129214;-38
2022/10/06 10:53:19;;;;;;;;;;;;;;;21.88;65.27;100716.75;7318008;19;129156;-37
2022/10/06 10:55:46;;;;;;;;;;;;;;;21.85;65.92;100727.44;7313603;19;129269;-38
2022/10/06 10:58:26;;;;;;;;;;;;;;;21.84;65.90;100731.03;7311215;19;129715;-37
2022/10/06 11:00:54;;;;;;;;;;;;;;;21.89;65.18;100728.06;7315409;19;129263;-37
2022/10/06 11:03:19;;;;;;;;;;;;;;;21.85;65.74;100727.44;7316628;19;130006;-38
2022/10/06 11:05:57;;;;;;;;;;;;;;;21.87;65.46;100728.19;7313483;19;129783;-38
2022/10/06 11:08:25;;;;;;;;;;;;;;;21.92;65.45;100733.06;7313536;19;130391;-37
2022/10/06 11:10:54;;;;;;;;;;;;;;;21.89;65.64;100733.31;7313400;19;130750;-38
2022/10/06 11:13:19;;;;;;;;;;;;;;;21.88;65.11;100737.69;7312004;19;130686;-38
2022/10/06 11:16:03;;;;;;;;;;;;;;;21.87;65.55;100741.28;7314254;19;129688;-37
2022/10/06 11:18:34;;;;;;;;;;;;;;;21.88;65.60;100742.94;7314032;19;129589;-38
2022/10/06 11:21:17;;;;;;;;;;;;;;;21.91;65.92;100737.47;7317195;19;129864;-38
2022/10/06 11:23:42;;;;;;;;;;;;;;;21.87;65.23;100730.78;7312792;19;130685;-37
2022/10/06 11:26:27;;;;;;;;;;;;;;;21.87;65.53;100737.81;7315914;19;129434;-37
2022/10/06 11:28:52;;;;;;;;;;;;;;;21.93;65.71;100738.19;7314329;19;129387;-38
2022/10/06 11:31:20;;;;;;;;;;;;;;;21.90;65.50;100734.94;7315953;19;129757;-37
2022/10/06 11:33:48;;;;;;;;;;;;;;;21.86;65.55;100744.00;7313412;19;129446;-38
2022/10/06 11:36:18;;;;;;;;;;;;;;;21.90;65.81;100734.94;7314560;19;129126;-37
2022/10/06 11:38:46;;;;;;;;;;;;;;;21.87;65.94;100735.19;7314407;19;131727;-38
2022/10/06 11:41:22;;;;;;;;;;;;;;;21.87;65.40;100736.03;7316275;19;129753;-38
2022/10/06 11:43:53;;;;;;;;;;;;;;;21.86;66.01;100723.06;7314355;19;131299;-38
2022/10/06 11:46:18;;;;;;;;;;;;;;;21.88;66.11;100729.84;7311982;19;129369;-38
2022/10/06 11:48:45;;;;;;;;;;;;;;;21.88;65.12;100729.84;7311719;19;129632;-37
2022/10/06 11:51:22;;;;;;;;;;;;;;;21.88;65.75;100735.06;7316228;19;130458;-37
2022/10/06 11:53:47;;;;;;;;;;;;;;;21.89;65.84;100728.06;7314501;19;129057;-38
2022/10/06 11:56:16;;;;;;;;;;;;;;;21.80;65.51;100719.09;7313074;19;129220;-37
2022/10/06 11:58:50;;;;;;;;;;;;;;;21.86;66.18;100734.38;7307735;19;130217;-37
2022/10/06 12:01:33;;;;;;;;;;;;;;;21.87;65.98;100740.44;7315410;19;130631;-38
2022/10/06 12:04:02;;;;;;;;;;;;;;;21.88;65.85;100748.16;7314288;19;129436;-37
2022/10/06 12:06:47;;;;;;;;;;;;;;;21.86;65.90;100739.63;7311752;19;129358;-38
2022/10/06 12:09:24;;;;;;;;;;;;;;;21.86;65.12;100736.16;7310330;19;129043;-37
2022/10/06 12:12:00;;;;;;;;;;;;;;;21.89;65.80;100744.63;7315428;19;129617;-37
2022/10/06 12:14:29;;;;;;;;;;;;;;;21.81;65.81;100726.03;7312769;19;129786;-37
2022/10/06 12:17:20;;;;;;;;;;;;;;;21.90;65.81;100738.41;7314246;19;129112;-37
2022/10/06 12:19:45;;;;;;;;;;;;;;;21.91;65.66;100742.69;7309315;19;130200;-37
2022/10/06 12:22:11;;;;;;;;;;;;;;;21.88;65.63;100744.72;7313710;19;129436;-38
2022/10/06 12:24:42;;;;;;;;;;;;;;;21.89;65.64;100738.53;7311775;19;129435;-38
2022/10/06 12:27:25;;;;;;;;;;;;;;;21.89;65.39;100739.38;7313843;19;129174;-38
2022/10/06 12:29:55;;;;;;;;;;;;;;;21.93;65.51;100740.00;7311078;19;130059;-38
2022/10/06 12:32:29;;;;;;;;;;;;;;;21.89;65.71;100734.16;7312151;19;129347;-37
2022/10/06 12:35:06;;;;;;;;;;;;;;;21.85;65.93;100737.94;7312893;19;129233;-37
2022/10/06 12:37:34;;;;;;;;;;;;;;;21.88;65.40;100732.44;7313537;19;128988;-37
2022/10/06 12:40:19;;;;;;;;;;;;;;;21.79;65.79;100722.69;7314189;19;130477;-37
2022/10/06 12:42:44;;;;;;;;;;;;;;;21.86;65.13;100734.38;7311960;19;129309;-37
2022/10/06 12:45:14;;;;;;;;;;;;;;;21.84;65.94;100731.03;7311489;19;129281;-37